Terminal Aerodrome Forecast
Issued by NWS

Home | Current Version | Previous Version | Text Only | Print | Product List | Glossary On
Versions: 1 2 3 4 5 6 7 8 9 10 11 12 13 14
000
FTUS43 KEAX 051520 AAA
TAFMKC
TAF AMD
KMKC 051520Z 0515/0612 18010KT P6SM FEW200
      TEMPO 0515/0517 BKN004
     FM060000 16005KT P6SM BKN150
     FM060900 33011KT P6SM BKN030=

USA.gov is the U.S. government's official web portal to all federal, state and local government web resources and services.